createdAt,value
2023-04-13T00:00:36.500Z,98860.03
2023-04-13T00:03:11.470Z,98860.86
2023-04-13T00:05:47.017Z,98848.69
2023-04-13T00:08:21.894Z,98855.61
2023-04-13T00:10:55.690Z,98857.33
2023-04-13T00:13:28.836Z,98854.72
2023-04-13T00:16:02.964Z,98852.94
2023-04-13T00:18:36.205Z,98856.39
2023-04-13T00:21:12.279Z,98852.88
2023-04-13T00:23:45.674Z,98856.34
2023-04-13T00:26:20.701Z,98850.23
2023-04-13T00:28:53.772Z,98846.73
2023-04-13T00:31:27.143Z,98850.19
2023-04-13T00:34:00.845Z,98857.96
2023-04-13T00:36:34.492Z,98863.16
2023-04-13T00:39:08.253Z,98866.57
2023-04-13T00:41:43.234Z,98861.35
2023-04-13T00:44:19.375Z,98862.20
2023-04-13T00:46:54.539Z,98870.02
2023-04-13T00:49:28.047Z,98862.16
2023-04-13T00:52:02.944Z,98863.90
2023-04-13T00:54:37.415Z,98866.51
2023-04-13T00:57:11.744Z,98862.14
2023-04-13T00:59:45.259Z,98870.81
2023-04-13T01:02:18.638Z,98866.45
2023-04-13T01:04:53.076Z,98863.75
2023-04-13T01:07:29.807Z,98861.14
2023-04-13T01:10:07.787Z,98867.19
2023-04-13T01:12:45.242Z,98863.69
2023-04-13T01:15:20.292Z,98866.27
2023-04-13T01:17:57.252Z,98864.52
2023-04-13T01:20:33.404Z,98867.95
2023-04-13T01:23:10.022Z,98874.87
2023-04-13T01:25:47.444Z,98880.92
2023-04-13T01:28:22.341Z,98881.77
2023-04-13T01:30:57.643Z,98873.95
2023-04-13T01:33:32.810Z,98879.98
2023-04-13T01:36:10.608Z,98879.09
2023-04-13T01:38:43.670Z,98875.61
2023-04-13T01:41:18.603Z,98872.10
2023-04-13T01:43:51.679Z,98879.91
2023-04-13T01:46:29.378Z,98878.15
2023-04-13T01:49:11.496Z,98876.39
2023-04-13T01:51:47.465Z,98880.69
2023-04-13T01:54:24.683Z,98875.48
2023-04-13T01:57:00.425Z,98877.18
2023-04-13T01:59:33.545Z,98873.71
2023-04-13T02:02:07.046Z,98878.05
2023-04-13T02:04:40.361Z,98877.14
2023-04-13T02:07:13.784Z,98878.84
2023-04-13T02:09:48.487Z,98875.38
2023-04-13T02:12:22.180Z,98874.47
2023-04-13T02:14:56.752Z,98877.07
2023-04-13T02:17:30.327Z,98880.52
2023-04-13T02:20:09.090Z,98874.45
2023-04-13T02:22:44.039Z,98878.76
2023-04-13T02:25:17.432Z,98872.69
2023-04-13T02:27:51.744Z,98878.73
2023-04-13T02:30:25.023Z,98878.66
2023-04-13T02:32:58.558Z,98876.90
2023-04-13T02:35:32.638Z,98876.88
2023-04-13T02:38:07.337Z,98885.53
2023-04-13T02:40:40.469Z,98883.77
2023-04-13T02:43:13.944Z,98884.66
2023-04-13T02:45:47.429Z,98883.77
2023-04-13T02:48:22.321Z,98887.22
2023-04-13T02:50:56.403Z,98885.50
2023-04-13T02:53:31.468Z,98895.02
2023-04-13T02:56:06.814Z,98895.92
2023-04-13T02:58:41.565Z,98892.48
2023-04-13T03:01:17.184Z,98879.48
2023-04-13T03:03:50.380Z,98882.10
2023-04-13T03:06:26.173Z,98884.72
2023-04-13T03:09:00.939Z,98889.09
2023-04-13T03:11:35.697Z,98893.41
2023-04-13T03:14:15.640Z,98893.41
2023-04-13T03:16:49.054Z,98883.88
2023-04-13T03:19:23.292Z,98892.58
2023-04-13T03:21:56.526Z,98896.05
2023-04-13T03:24:32.506Z,98894.34
2023-04-13T03:27:07.527Z,98897.80
2023-04-13T03:29:42.428Z,98895.21
2023-04-13T03:32:17.558Z,98896.95
2023-04-13T03:34:52.536Z,98903.92
2023-04-13T03:37:28.251Z,98892.70
2023-04-13T03:40:02.507Z,98894.50
2023-04-13T03:42:37.327Z,98894.52
2023-04-13T03:45:12.295Z,98900.66
2023-04-13T03:47:46.038Z,98898.11
2023-04-13T03:50:19.471Z,98903.41
2023-04-13T03:52:53.303Z,98895.67
2023-04-13T03:55:27.153Z,98902.72
2023-04-13T03:58:02.580Z,98893.28
2023-04-13T04:00:36.266Z,98891.64
2023-04-13T04:03:11.225Z,98897.77
2023-04-13T04:05:49.423Z,98898.72
2023-04-13T04:08:22.555Z,98898.78
2023-04-13T04:10:57.467Z,98897.95
2023-04-13T04:13:32.066Z,98898.89
2023-04-13T04:16:11.626Z,98899.80
2023-04-13T04:18:46.758Z,98899.84
2023-04-13T04:21:22.112Z,98897.28
2023-04-13T04:23:55.310Z,98899.94
2023-04-13T04:26:30.165Z,98908.66
2023-04-13T04:29:04.746Z,98906.13
2023-04-13T04:31:40.378Z,98901.83
2023-04-13T04:34:16.304Z,98906.24
2023-04-13T04:36:52.159Z,98894.98
2023-04-13T04:39:28.203Z,98900.24
2023-04-13T04:42:04.298Z,98909.82
2023-04-13T04:44:37.907Z,98905.51
2023-04-13T04:47:15.517Z,98903.77
2023-04-13T04:49:50.370Z,98922.95
2023-04-13T04:52:25.096Z,98912.49
2023-04-13T04:54:59.763Z,98914.23
2023-04-13T04:57:34.213Z,98917.70
2023-04-13T05:00:15.700Z,98914.20
2023-04-13T05:02:51.056Z,98915.90
2023-04-13T05:05:27.679Z,98908.05
2023-04-13T05:08:01.328Z,98920.23
2023-04-13T05:10:35.377Z,98916.73
2023-04-13T05:13:09.026Z,98921.92
2023-04-13T05:15:42.217Z,98917.55
2023-04-13T05:18:17.025Z,98914.91
2023-04-13T05:20:50.376Z,98908.78
2023-04-13T05:23:23.881Z,98914.81
2023-04-13T05:25:59.228Z,98905.17
2023-04-13T05:28:34.278Z,98899.05
2023-04-13T05:31:11.231Z,98899.86
2023-04-13T05:33:46.562Z,98899.75
2023-04-13T05:36:20.494Z,98894.41
2023-04-13T05:38:54.636Z,98889.03
2023-04-13T05:41:28.643Z,98881.04
2023-04-13T05:44:02.214Z,98889.66
2023-04-13T05:46:36.587Z,98875.54
2023-04-13T05:49:11.773Z,98880.63
2023-04-13T05:51:45.204Z,98881.28
2023-04-13T05:54:18.635Z,98877.50
2023-04-13T05:56:53.350Z,98884.20
2023-04-13T05:59:27.484Z,98880.34
2023-04-13T06:02:03.384Z,98880.00
2023-04-13T06:04:37.157Z,98878.84
2023-04-13T06:07:10.738Z,98875.11
2023-04-13T06:09:45.542Z,98869.45
2023-04-13T06:12:19.577Z,98867.28
2023-04-13T06:14:52.916Z,98866.84
2023-04-13T06:17:26.048Z,98867.27
2023-04-13T06:19:59.537Z,98865.98
2023-04-13T06:22:34.207Z,98858.45
2023-04-13T06:27:51.494Z,98866.92
2023-04-13T06:30:25.709Z,98862.27
2023-04-13T06:33:00.674Z,98861.22
2023-04-13T06:35:34.173Z,98867.77
2023-04-13T06:38:08.556Z,98858.22
2023-04-13T06:40:43.544Z,98854.23
2023-04-13T06:43:28.767Z,98857.94
2023-04-13T06:46:00.376Z,98850.48
2023-04-13T06:48:34.731Z,98860.31
2023-04-13T06:51:08.659Z,98858.88
2023-04-13T06:53:42.259Z,98857.73
2023-04-13T06:56:15.596Z,98852.73
2023-04-13T06:58:49.059Z,98856.29
2023-04-13T07:01:22.387Z,98855.74
2023-04-13T07:03:55.927Z,98848.91
2023-04-13T07:09:11.699Z,98861.73
2023-04-13T07:11:45.713Z,98862.04
2023-04-13T07:14:20.820Z,98867.70
2023-04-13T07:16:54.505Z,98866.52
2023-04-13T07:19:28.202Z,98867.55
2023-04-13T07:22:04.390Z,98866.36
2023-04-13T07:24:38.708Z,98874.77
2023-04-13T07:27:13.548Z,98878.12
2023-04-13T07:29:47.152Z,98874.09
2023-04-13T07:32:24.481Z,98881.91
2023-04-13T07:34:59.387Z,98861.38
2023-04-13T07:37:34.530Z,98859.84
2023-04-13T07:40:11.697Z,98876.28
2023-04-13T07:42:47.359Z,98870.08
2023-04-13T07:45:21.278Z,98834.45
2023-04-13T07:47:54.910Z,98872.53
2023-04-13T07:50:28.117Z,98887.44
2023-04-13T07:53:01.800Z,98864.31
2023-04-13T07:55:35.318Z,98865.50
2023-04-13T07:58:09.251Z,98877.91
2023-04-13T08:00:42.747Z,98866.42
2023-04-13T08:03:16.830Z,98875.45
2023-04-13T08:05:52.088Z,98858.80
2023-04-13T08:08:26.531Z,98843.58
2023-04-13T08:10:59.696Z,98867.87
2023-04-13T08:13:33.071Z,98861.31
2023-04-13T08:18:48.497Z,98865.32
2023-04-13T08:21:23.931Z,98876.12
2023-04-13T08:23:57.500Z,98876.17
2023-04-13T08:26:30.963Z,98856.16
2023-04-13T08:29:05.724Z,98834.09
2023-04-13T08:31:41.099Z,98859.56
2023-04-13T08:34:14.598Z,98865.86
2023-04-13T08:36:47.949Z,98855.77
2023-04-13T08:39:22.306Z,98858.94
2023-04-13T08:41:57.023Z,98857.45
2023-04-13T08:44:32.827Z,98860.66
2023-04-13T08:47:06.726Z,98870.02
2023-04-13T08:49:42.023Z,98861.78
2023-04-13T08:52:20.648Z,98854.00
2023-04-13T08:54:57.739Z,98853.11
2023-04-13T08:57:35.657Z,98847.55
2023-04-13T09:00:14.034Z,98854.22
2023-04-13T09:03:02.962Z,98846.23
2023-04-13T09:05:28.402Z,98832.03
2023-04-13T09:08:06.702Z,98844.22
2023-04-13T09:10:42.334Z,98843.16
2023-04-13T09:13:19.192Z,98849.69
2023-04-13T09:15:53.136Z,98827.00
2023-04-13T09:18:34.628Z,98861.17
2023-04-13T09:21:10.151Z,98856.45
2023-04-13T09:23:45.072Z,98851.06
2023-04-13T09:26:18.537Z,98857.77
2023-04-13T09:28:55.543Z,98862.98
2023-04-13T09:31:28.530Z,98845.17
2023-04-13T09:34:02.254Z,98863.38
2023-04-13T09:36:41.167Z,98869.15
2023-04-13T09:39:11.991Z,98866.30
2023-04-13T09:41:47.082Z,98860.41
2023-04-13T09:44:23.444Z,98853.27
2023-04-13T09:47:07.056Z,98860.56
2023-04-13T09:49:41.608Z,98851.95
2023-04-13T09:52:22.913Z,98856.08
2023-04-13T09:54:58.806Z,98859.05
2023-04-13T09:57:34.508Z,98850.47
2023-04-13T10:00:14.361Z,98864.20
2023-04-13T10:02:49.540Z,98852.84
2023-04-13T10:05:26.878Z,98849.77
2023-04-13T10:08:00.539Z,98852.48
2023-04-13T10:10:34.526Z,98856.22
2023-04-13T10:13:11.762Z,98840.91
2023-04-13T10:15:57.452Z,98828.79
2023-04-13T10:18:35.128Z,98835.92
2023-04-13T10:21:09.492Z,98836.92
2023-04-13T10:23:43.579Z,98843.11
2023-04-13T10:26:17.702Z,98847.41
2023-04-13T10:28:51.135Z,98832.55
2023-04-13T10:31:26.169Z,98825.95
2023-04-13T10:34:01.045Z,98823.05
2023-04-13T10:36:41.951Z,98832.45
2023-04-13T10:39:18.299Z,98826.95
2023-04-13T10:42:01.203Z,98818.45
2023-04-13T10:44:48.447Z,98824.78
2023-04-13T10:47:25.872Z,98822.47
2023-04-13T10:50:00.385Z,98827.13
2023-04-13T10:52:34.215Z,98816.77
2023-04-13T10:55:11.637Z,98807.92
2023-04-13T10:57:45.499Z,98822.94
2023-04-13T11:00:27.314Z,98823.83
2023-04-13T11:02:59.671Z,98812.00
2023-04-13T11:05:33.738Z,98816.41
2023-04-13T11:08:09.205Z,98838.20
2023-04-13T11:10:42.508Z,98830.73
2023-04-13T11:13:16.485Z,98814.40
2023-04-13T11:15:51.980Z,98831.06
2023-04-13T11:18:28.982Z,98827.89
2023-04-13T11:21:06.011Z,98824.78
2023-04-13T11:23:38.582Z,98822.55
2023-04-13T11:26:12.095Z,98824.59
2023-04-13T11:28:47.192Z,98823.08
2023-04-13T11:31:21.544Z,98806.94
2023-04-13T11:33:55.066Z,98803.22
2023-04-13T11:36:30.573Z,98829.06
2023-04-13T11:39:06.725Z,98826.26
2023-04-13T11:41:44.581Z,98830.50
2023-04-13T11:44:19.508Z,98821.57
2023-04-13T11:46:56.490Z,98837.56
2023-04-13T11:49:28.402Z,98813.34
2023-04-13T11:52:02.362Z,98821.25
2023-04-13T11:54:35.913Z,98815.50
2023-04-13T11:57:09.386Z,98817.39
2023-04-13T11:59:42.880Z,98816.80
2023-04-13T12:02:21.726Z,98823.52
2023-04-13T12:04:51.622Z,98815.60
2023-04-13T12:07:26.571Z,98823.75
2023-04-13T12:10:05.438Z,98803.66
2023-04-13T12:15:24.341Z,98817.78
2023-04-13T12:17:57.259Z,98824.60
2023-04-13T12:20:26.633Z,98812.04
2023-04-13T12:23:08.610Z,98819.59
2023-04-13T12:25:36.413Z,98814.02
2023-04-13T12:28:09.866Z,98813.10
2023-04-13T12:30:43.325Z,98802.95
2023-04-13T12:33:16.744Z,98813.12
2023-04-13T12:35:50.034Z,98832.41
2023-04-13T12:38:23.279Z,98827.65
2023-04-13T12:41:00.500Z,98823.42
2023-04-13T12:43:33.870Z,98830.34
2023-04-13T12:46:07.277Z,98822.73
2023-04-13T12:48:40.673Z,98823.69
2023-04-13T12:51:14.167Z,98813.50
2023-04-13T12:53:47.581Z,98805.34
2023-04-13T12:56:21.066Z,98815.25
2023-04-13T12:58:54.624Z,98821.19
2023-04-13T13:01:28.448Z,98814.73
2023-04-13T13:04:02.138Z,98819.94
2023-04-13T13:06:35.922Z,98810.83
2023-04-13T13:09:09.644Z,98809.95
2023-04-13T13:11:42.858Z,98798.09
2023-04-13T13:14:15.954Z,98803.18
2023-04-13T13:16:50.230Z,98818.81
2023-04-13T13:19:23.693Z,98803.69
2023-04-13T13:21:57.187Z,98794.34
2023-04-13T13:24:31.279Z,98806.38
2023-04-13T13:29:39.764Z,98802.48
2023-04-13T13:32:13.294Z,98797.84
2023-04-13T13:34:46.867Z,98809.98
2023-04-13T13:37:20.300Z,98801.95
2023-04-13T13:39:54.126Z,98798.48
2023-04-13T13:42:32.465Z,98807.34
2023-04-13T13:45:02.350Z,98821.88
2023-04-13T13:47:36.154Z,98817.26
2023-04-13T13:50:11.870Z,98817.16
2023-04-13T13:53:01.570Z,98813.77
2023-04-13T13:55:24.567Z,98829.75
2023-04-13T13:57:57.930Z,98837.52
2023-04-13T14:00:31.373Z,98836.16
2023-04-13T14:03:05.137Z,98833.97
2023-04-13T14:05:38.636Z,98826.08
2023-04-13T14:08:12.320Z,98836.50
2023-04-13T14:10:47.522Z,98838.34
2023-04-13T14:13:21.382Z,98845.20
2023-04-13T14:15:54.713Z,98843.16
2023-04-13T14:18:28.248Z,98855.52
2023-04-13T14:23:43.545Z,98840.97
2023-04-13T14:26:16.959Z,98857.54
2023-04-13T14:28:51.167Z,98849.33
2023-04-13T14:31:24.809Z,98849.16
2023-04-13T14:33:58.303Z,98847.59
2023-04-13T14:36:32.429Z,98852.81
2023-04-13T14:39:06.239Z,98847.30
2023-04-13T14:41:39.437Z,98854.41
2023-04-13T14:44:12.617Z,98854.38
2023-04-13T14:46:46.218Z,98868.87
2023-04-13T14:49:19.738Z,98856.00
2023-04-13T14:51:53.002Z,98846.85
2023-04-13T14:54:26.447Z,98849.92
2023-04-13T14:56:59.814Z,98839.58
2023-04-13T14:59:32.934Z,98849.75
2023-04-13T15:02:06.646Z,98858.15
2023-04-13T15:04:42.232Z,98869.68
2023-04-13T15:07:15.621Z,98872.77
2023-04-13T15:09:49.051Z,98877.86
2023-04-13T15:12:22.860Z,98881.67
2023-04-13T15:14:56.894Z,98888.70
2023-04-13T15:17:30.790Z,98879.53
2023-04-13T15:20:07.738Z,98883.90
2023-04-13T15:22:41.475Z,98878.80
2023-04-13T15:25:15.018Z,98885.33
2023-04-13T15:27:51.086Z,98889.80
2023-04-13T15:30:28.728Z,98893.97
2023-04-13T15:33:03.205Z,98898.72
2023-04-13T15:35:38.167Z,98906.17
2023-04-13T15:38:11.720Z,98896.02
2023-04-13T15:40:44.836Z,98908.56
2023-04-13T15:43:18.723Z,98916.72
2023-04-13T15:45:51.872Z,98917.02
2023-04-13T15:48:25.227Z,98919.89
2023-04-13T15:51:02.301Z,98921.86
2023-04-13T15:53:35.610Z,98925.77
2023-04-13T15:56:11.867Z,98921.61
2023-04-13T15:58:45.171Z,98924.50
2023-04-13T16:01:18.494Z,98926.56
2023-04-13T16:03:52.086Z,98919.89
2023-04-13T16:06:26.108Z,98939.75
2023-04-13T16:08:59.482Z,98937.65
2023-04-13T16:11:32.958Z,98947.58
2023-04-13T16:14:07.968Z,98947.84
2023-04-13T16:16:46.793Z,98955.13
2023-04-13T16:19:21.255Z,98952.70
2023-04-13T16:21:54.588Z,98957.25
2023-04-13T16:24:27.933Z,98958.31
2023-04-13T16:27:04.276Z,98969.14
2023-04-13T16:29:37.557Z,98962.41
2023-04-13T16:32:11.160Z,98967.13
2023-04-13T16:34:44.485Z,98973.61
2023-04-13T16:37:17.827Z,98976.45
2023-04-13T16:39:51.208Z,98980.12
2023-04-13T16:42:24.461Z,98983.88
2023-04-13T16:44:57.752Z,98987.55
2023-04-13T16:47:32.388Z,98999.19
2023-04-13T16:50:05.724Z,99000.19
2023-04-13T16:52:40.147Z,99011.72
2023-04-13T16:55:15.735Z,99004.77
2023-04-13T16:57:48.857Z,99017.25
2023-04-13T17:00:23.695Z,99028.75
2023-04-13T17:02:58.420Z,99022.77
2023-04-13T17:05:32.091Z,99033.34
2023-04-13T17:08:07.609Z,99043.88
2023-04-13T17:10:41.048Z,99043.09
2023-04-13T17:13:14.193Z,99044.84
2023-04-13T17:15:47.295Z,99048.41
2023-04-13T17:18:20.868Z,99043.18
2023-04-13T17:20:57.217Z,99044.11
2023-04-13T17:23:30.418Z,99056.43
2023-04-13T17:26:04.100Z,99039.81
2023-04-13T17:28:37.354Z,99050.47
2023-04-13T17:31:12.660Z,99057.56
2023-04-13T17:33:45.626Z,99055.86
2023-04-13T17:36:18.895Z,99051.55
2023-04-13T17:38:52.425Z,99056.00
2023-04-13T17:41:26.123Z,99066.58
2023-04-13T17:43:59.084Z,99056.95
2023-04-13T17:46:32.496Z,99061.36
2023-04-13T17:49:05.679Z,99062.30
2023-04-13T17:51:38.978Z,99067.59
2023-04-13T17:54:12.462Z,99078.97
2023-04-13T17:56:45.951Z,99076.35
2023-04-13T17:59:18.983Z,99082.50
2023-04-13T18:01:53.054Z,99087.78
2023-04-13T18:04:26.681Z,99089.58
2023-04-13T18:07:00.024Z,99083.55
2023-04-13T18:09:33.278Z,99086.20
2023-04-13T18:12:09.512Z,99084.52
2023-04-13T18:14:42.509Z,99081.95
2023-04-13T18:17:16.541Z,99072.36
2023-04-13T18:19:51.053Z,99085.49
2023-04-13T18:22:24.632Z,99082.91
2023-04-13T18:24:57.808Z,99082.91
2023-04-13T18:27:31.892Z,99089.08
2023-04-13T18:30:05.274Z,99085.60
2023-04-13T18:32:52.185Z,99102.25
2023-04-13T18:38:28.574Z,99100.50
2023-04-13T18:41:07.735Z,99106.66
2023-04-13T18:43:46.294Z,99094.48
2023-04-13T18:46:21.529Z,99100.59
2023-04-13T18:48:54.904Z,99111.95
2023-04-13T18:51:37.904Z,99112.86
2023-04-13T18:54:12.338Z,99105.88
2023-04-13T18:56:45.872Z,99114.61
2023-04-13T18:59:19.156Z,99106.77
2023-04-13T19:02:01.347Z,99108.50
2023-04-13T19:04:35.775Z,99119.87
2023-04-13T19:07:09.774Z,99105.95
2023-04-13T19:09:42.870Z,99117.27
2023-04-13T19:12:27.182Z,99108.53
2023-04-13T19:15:05.454Z,99122.52
2023-04-13T19:17:42.108Z,99126.86
2023-04-13T19:20:19.656Z,99124.25
2023-04-13T19:22:54.238Z,99138.23
2023-04-13T19:25:27.634Z,99131.27
2023-04-13T19:28:01.695Z,99146.09
2023-04-13T19:30:35.359Z,99137.36
2023-04-13T19:33:08.727Z,99146.95
2023-04-13T19:35:42.025Z,99146.95
2023-04-13T19:38:21.323Z,99144.34
2023-04-13T19:40:57.927Z,99145.20
2023-04-13T19:43:31.008Z,99134.73
2023-04-13T19:46:16.772Z,99134.71
2023-04-13T19:49:00.248Z,99138.20
2023-04-13T19:51:33.921Z,99129.45
2023-04-13T19:54:13.662Z,99141.64
2023-04-13T19:56:46.761Z,99145.98
2023-04-13T19:59:19.965Z,99142.48
2023-04-13T20:01:53.686Z,99143.31
2023-04-13T20:04:27.332Z,99149.41
2023-04-13T20:07:00.875Z,99141.53
2023-04-13T20:09:34.173Z,99144.94
2023-04-13T20:12:09.033Z,99156.17
2023-04-13T20:14:42.633Z,99143.07
2023-04-13T20:17:16.395Z,99158.73
2023-04-13T20:19:49.986Z,99151.70
2023-04-13T20:22:23.587Z,99156.87
2023-04-13T20:24:56.909Z,99157.67
2023-04-13T20:27:30.780Z,99169.77
2023-04-13T20:30:04.080Z,99161.86
2023-04-13T20:32:37.003Z,99154.83
2023-04-13T20:35:11.540Z,99166.09
2023-04-13T20:37:44.900Z,99162.56
2023-04-13T20:40:18.631Z,99172.08
2023-04-13T20:42:52.038Z,99168.55
2023-04-13T20:45:25.967Z,99167.63
2023-04-13T20:50:35.869Z,99165.70
2023-04-13T20:53:10.034Z,99168.22
2023-04-13T20:55:43.226Z,99162.87
2023-04-13T20:58:16.331Z,99170.67
2023-04-13T21:00:51.022Z,99173.27
2023-04-13T21:03:25.256Z,99171.48
2023-04-13T21:05:58.546Z,99168.81
2023-04-13T21:08:33.933Z,99187.79
2023-04-13T21:11:07.268Z,99186.84
2023-04-13T21:13:40.561Z,99191.12
2023-04-13T21:16:14.616Z,99191.84
2023-04-13T21:18:48.094Z,99188.34
2023-04-13T21:21:23.462Z,99191.78
2023-04-13T21:23:58.600Z,99196.89
2023-04-13T21:26:32.169Z,99182.05
2023-04-13T21:29:09.106Z,99195.85
2023-04-13T21:31:42.202Z,99194.91
2023-04-13T21:34:15.696Z,99194.88
2023-04-13T21:36:51.922Z,99188.78
2023-04-13T21:39:25.650Z,99189.59
2023-04-13T21:41:58.909Z,99193.00
2023-04-13T21:44:32.816Z,99185.95
2023-04-13T21:47:06.272Z,99196.28
2023-04-13T21:49:39.709Z,99196.98
2023-04-13T21:52:16.237Z,99216.84
2023-04-13T21:54:51.538Z,99208.11
2023-04-13T21:57:24.352Z,99210.62
2023-04-13T21:59:57.700Z,99214.94
2023-04-13T22:02:31.266Z,99191.47
2023-04-13T22:05:04.878Z,99212.23
2023-04-13T22:07:43.218Z,99217.41
2023-04-13T22:10:15.665Z,99231.23
2023-04-13T22:12:48.934Z,99222.59
2023-04-13T22:15:22.142Z,99233.88
2023-04-13T22:17:55.520Z,99230.41
2023-04-13T22:20:28.746Z,99216.52
2023-04-13T22:23:05.934Z,99227.79
2023-04-13T22:25:39.009Z,99221.67
2023-04-13T22:28:12.396Z,99222.52
2023-04-13T22:30:45.811Z,99225.94
2023-04-13T22:33:19.207Z,99218.08
2023-04-13T22:35:52.779Z,99225.78
2023-04-13T22:38:26.304Z,99216.08
2023-04-13T22:40:59.836Z,99217.81
2023-04-13T22:43:33.192Z,99214.23
2023-04-13T22:46:06.618Z,99211.47
2023-04-13T22:48:39.664Z,99228.61
2023-04-13T22:51:12.725Z,99214.72
2023-04-13T22:53:45.964Z,99212.88
2023-04-13T22:56:19.152Z,99223.22
2023-04-13T22:58:52.365Z,99228.31
2023-04-13T23:01:25.859Z,99221.30
2023-04-13T23:03:59.528Z,99222.09
2023-04-13T23:06:32.979Z,99216.85
2023-04-13T23:09:06.280Z,99220.99
2023-04-13T23:11:39.808Z,99231.11
2023-04-13T23:14:13.222Z,99219.58
2023-04-13T23:16:46.631Z,99226.30
2023-04-13T23:19:20.567Z,99229.53
2023-04-13T23:21:53.860Z,99225.06
2023-04-13T23:24:28.383Z,99228.41
2023-04-13T23:27:01.702Z,99232.52
2023-04-13T23:29:35.085Z,99233.20
2023-04-13T23:32:08.974Z,99238.20
2023-04-13T23:34:42.223Z,99237.98
2023-04-13T23:37:15.566Z,99230.87
2023-04-13T23:39:48.880Z,99235.06
2023-04-13T23:42:22.048Z,99242.65
2023-04-13T23:44:54.910Z,99251.98
2023-04-13T23:47:28.849Z,99253.58
2023-04-13T23:50:02.734Z,99258.70
2023-04-13T23:52:36.092Z,99261.16
2023-04-13T23:55:10.882Z,99258.42
2023-04-13T23:57:44.092Z,99260.77
